createdAt,value
2023-02-23T00:00:13.219Z,0.00
2023-02-23T00:01:13.295Z,0.00
2023-02-23T00:02:13.548Z,0.00
2023-02-23T00:03:13.404Z,0.00
2023-02-23T00:04:13.545Z,0.00
2023-02-23T00:05:14.637Z,0.00
2023-02-23T00:06:13.574Z,0.00
2023-02-23T00:07:13.476Z,0.00
2023-02-23T00:08:13.493Z,0.00
2023-02-23T00:09:14.369Z,0.00
2023-02-23T00:10:13.336Z,0.00
2023-02-23T00:11:13.424Z,0.00
2023-02-23T00:12:13.502Z,0.00
2023-02-23T00:13:13.623Z,0.00
2023-02-23T00:14:13.800Z,0.00
2023-02-23T00:15:13.867Z,0.00
2023-02-23T00:16:13.941Z,0.00
2023-02-23T00:17:13.306Z,0.00
2023-02-23T00:18:14.059Z,0.00
2023-02-23T00:19:12.954Z,0.00
2023-02-23T00:20:12.973Z,0.00
2023-02-23T00:21:13.099Z,0.00
2023-02-23T00:22:13.057Z,0.00
2023-02-23T00:23:13.045Z,0.00
2023-02-23T00:24:13.056Z,0.00
2023-02-23T00:25:13.607Z,0.00
2023-02-23T00:26:13.601Z,0.00
2023-02-23T00:27:13.811Z,0.00
2023-02-23T00:28:13.797Z,0.00
2023-02-23T00:29:15.308Z,0.00
2023-02-23T00:30:13.370Z,0.00
2023-02-23T00:31:13.616Z,0.00
2023-02-23T00:32:13.978Z,0.00
2023-02-23T00:33:13.129Z,0.00
2023-02-23T00:34:13.535Z,0.00
2023-02-23T00:35:13.899Z,0.00
2023-02-23T00:36:13.065Z,0.00
2023-02-23T00:37:13.107Z,0.00
2023-02-23T00:38:14.195Z,0.00
2023-02-23T00:39:13.225Z,0.00
2023-02-23T00:40:13.206Z,0.00
2023-02-23T00:41:14.449Z,0.00
2023-02-23T00:42:13.553Z,0.00
2023-02-23T00:43:13.570Z,0.00
2023-02-23T00:44:14.011Z,0.00
2023-02-23T00:45:13.028Z,0.00
2023-02-23T00:46:13.220Z,0.00
2023-02-23T00:47:13.560Z,0.00
2023-02-23T00:48:13.668Z,0.00
2023-02-23T00:49:13.874Z,0.00
2023-02-23T00:50:14.113Z,0.00
2023-02-23T00:51:13.192Z,0.00
2023-02-23T00:52:13.182Z,0.00
2023-02-23T00:53:13.324Z,0.00
2023-02-23T00:54:13.286Z,0.00
2023-02-23T00:55:13.300Z,0.00
2023-02-23T00:56:13.691Z,0.00
2023-02-23T00:57:13.806Z,0.00
2023-02-23T00:58:14.174Z,0.00
2023-02-23T00:59:13.163Z,0.00
2023-02-23T01:00:13.154Z,0.00
2023-02-23T01:01:13.725Z,0.00
2023-02-23T01:02:13.934Z,0.00
2023-02-23T01:03:13.087Z,0.00
2023-02-23T01:04:12.989Z,0.00
2023-02-23T01:05:12.942Z,0.00
2023-02-23T01:06:13.138Z,0.00
2023-02-23T01:07:13.309Z,0.00
2023-02-23T01:08:13.567Z,0.00
2023-02-23T01:09:13.943Z,0.00
2023-02-23T01:10:13.010Z,0.00
2023-02-23T01:11:13.111Z,0.00
2023-02-23T01:12:13.410Z,0.00
2023-02-23T01:13:13.550Z,0.00
2023-02-23T01:14:13.884Z,0.00
2023-02-23T01:15:19.084Z,0.00
2023-02-23T01:16:13.107Z,0.00
2023-02-23T01:17:13.265Z,0.00
2023-02-23T01:18:13.319Z,0.00
2023-02-23T01:19:13.408Z,0.00
2023-02-23T01:20:18.445Z,0.00
2023-02-23T01:21:13.535Z,0.00
2023-02-23T01:22:14.089Z,0.00
2023-02-23T01:23:13.093Z,0.00
2023-02-23T01:24:13.113Z,0.00
2023-02-23T01:25:13.323Z,0.00
2023-02-23T01:26:13.233Z,0.00
2023-02-23T01:27:13.224Z,0.00
2023-02-23T01:28:13.333Z,0.00
2023-02-23T01:29:13.395Z,0.00
2023-02-23T01:30:15.181Z,0.00
2023-02-23T01:31:14.007Z,0.00
2023-02-23T01:32:13.395Z,0.00
2023-02-23T01:33:13.772Z,0.00
2023-02-23T01:34:13.805Z,0.00
2023-02-23T01:35:29.983Z,0.00
2023-02-23T01:36:13.284Z,0.00
2023-02-23T01:37:20.607Z,0.00
2023-02-23T01:38:14.023Z,0.00
2023-02-23T01:39:13.222Z,0.00
2023-02-23T01:40:13.571Z,0.00
2023-02-23T01:41:13.696Z,0.00
2023-02-23T01:42:13.884Z,0.00
2023-02-23T01:43:13.085Z,0.00
2023-02-23T01:44:13.627Z,0.00
2023-02-23T01:45:13.937Z,0.00
2023-02-23T01:46:12.966Z,0.00
2023-02-23T01:47:13.516Z,0.00
2023-02-23T01:48:13.684Z,0.00
2023-02-23T01:49:14.654Z,0.00
2023-02-23T01:50:13.952Z,0.00
2023-02-23T01:51:13.332Z,0.00
2023-02-23T01:52:13.768Z,0.00
2023-02-23T01:53:13.964Z,0.00
2023-02-23T01:54:13.159Z,0.00
2023-02-23T01:55:13.603Z,0.00
2023-02-23T01:56:13.547Z,0.00
2023-02-23T01:57:13.657Z,0.00
2023-02-23T01:58:13.830Z,0.00
2023-02-23T01:59:13.830Z,0.00
2023-02-23T02:00:14.252Z,0.00
2023-02-23T02:01:13.340Z,0.00
2023-02-23T02:02:13.495Z,0.00
2023-02-23T02:03:13.838Z,0.00
2023-02-23T02:04:13.872Z,0.00
2023-02-23T02:05:14.264Z,0.00
2023-02-23T02:06:13.428Z,0.00
2023-02-23T02:07:13.783Z,0.00
2023-02-23T02:08:14.061Z,0.00
2023-02-23T02:09:12.985Z,0.00
2023-02-23T02:10:13.090Z,0.00
2023-02-23T02:11:13.466Z,0.00
2023-02-23T02:12:13.452Z,0.00
2023-02-23T02:13:13.417Z,0.00
2023-02-23T02:14:13.581Z,0.00
2023-02-23T02:15:13.828Z,0.00
2023-02-23T02:16:14.058Z,0.00
2023-02-23T02:17:13.116Z,0.00
2023-02-23T02:18:13.131Z,0.00
2023-02-23T02:19:13.173Z,0.00
2023-02-23T02:20:13.302Z,0.00
2023-02-23T02:21:13.252Z,0.00
2023-02-23T02:22:13.318Z,0.00
2023-02-23T02:23:13.270Z,0.00
2023-02-23T02:24:13.365Z,0.00
2023-02-23T02:25:13.687Z,0.00
2023-02-23T02:26:13.745Z,0.00
2023-02-23T02:27:13.938Z,0.00
2023-02-23T02:28:12.952Z,0.00
2023-02-23T02:29:13.017Z,0.00
2023-02-23T02:30:12.980Z,0.00
2023-02-23T02:31:13.031Z,0.00
2023-02-23T02:32:13.309Z,0.00
2023-02-23T02:33:13.214Z,0.00
2023-02-23T02:34:13.364Z,0.00
2023-02-23T02:35:13.544Z,0.00
2023-02-23T02:36:13.590Z,0.00
2023-02-23T02:37:13.591Z,0.00
2023-02-23T02:38:13.466Z,0.00
2023-02-23T02:39:13.324Z,0.00
2023-02-23T02:40:13.852Z,0.00
2023-02-23T02:41:13.962Z,0.00
2023-02-23T02:42:13.029Z,0.00
2023-02-23T02:43:13.433Z,0.00
2023-02-23T02:44:13.464Z,0.00
2023-02-23T02:45:13.423Z,0.00
2023-02-23T02:46:13.506Z,0.00
2023-02-23T02:47:13.706Z,0.00
2023-02-23T02:48:13.726Z,0.00
2023-02-23T02:49:13.815Z,0.00
2023-02-23T02:50:13.767Z,0.00
2023-02-23T02:51:14.096Z,0.00
2023-02-23T02:52:13.418Z,0.00
2023-02-23T02:53:13.389Z,0.00
2023-02-23T02:54:13.333Z,0.00
2023-02-23T02:55:13.331Z,0.00
2023-02-23T02:56:13.338Z,0.00
2023-02-23T02:57:13.249Z,0.00
2023-02-23T02:58:13.609Z,0.00
2023-02-23T02:59:14.106Z,0.00
2023-02-23T03:00:13.135Z,0.00
2023-02-23T03:01:13.142Z,0.00
2023-02-23T03:02:13.153Z,0.00
2023-02-23T03:03:13.088Z,0.00
2023-02-23T03:04:13.117Z,0.00
2023-02-23T03:05:13.212Z,0.00
2023-02-23T03:06:13.417Z,0.00
2023-02-23T03:07:13.321Z,0.00
2023-02-23T03:08:13.701Z,0.00
2023-02-23T03:09:13.841Z,0.00
2023-02-23T03:10:13.827Z,0.00
2023-02-23T03:11:14.158Z,0.00
2023-02-23T03:12:13.224Z,0.00
2023-02-23T03:13:13.531Z,0.00
2023-02-23T03:14:13.720Z,0.00
2023-02-23T03:15:13.799Z,0.00
2023-02-23T03:16:14.802Z,0.00
2023-02-23T03:17:14.216Z,0.00
2023-02-23T03:18:13.221Z,0.00
2023-02-23T03:19:13.286Z,0.00
2023-02-23T03:20:13.224Z,0.00
2023-02-23T03:21:13.333Z,0.00
2023-02-23T03:22:13.665Z,0.00
2023-02-23T03:23:13.672Z,0.00
2023-02-23T03:24:13.866Z,0.00
2023-02-23T03:25:14.131Z,0.00
2023-02-23T03:26:13.267Z,0.00
2023-02-23T03:27:13.221Z,0.00
2023-02-23T03:28:13.263Z,0.00
2023-02-23T03:29:13.156Z,0.00
2023-02-23T03:30:13.134Z,0.00
2023-02-23T03:31:13.168Z,0.00
2023-02-23T03:32:13.301Z,0.00
2023-02-23T03:33:13.498Z,0.00
2023-02-23T03:34:13.434Z,0.00
2023-02-23T03:35:13.421Z,0.00
2023-02-23T03:36:13.526Z,0.00
2023-02-23T03:37:13.470Z,0.00
2023-02-23T03:38:13.383Z,0.00
2023-02-23T03:39:13.549Z,0.00
2023-02-23T03:40:13.750Z,0.00
2023-02-23T03:41:13.852Z,0.00
2023-02-23T03:42:14.123Z,0.00
2023-02-23T03:43:13.308Z,0.00
2023-02-23T03:44:13.263Z,0.00
2023-02-23T03:45:13.263Z,0.00
2023-02-23T03:46:13.182Z,0.00
2023-02-23T03:47:13.136Z,0.00
2023-02-23T03:48:13.343Z,0.00
2023-02-23T03:49:13.399Z,0.00
2023-02-23T03:50:13.398Z,0.00
2023-02-23T03:51:13.380Z,0.00
2023-02-23T03:52:13.787Z,0.00
2023-02-23T03:53:13.708Z,0.00
2023-02-23T03:54:13.916Z,0.00
2023-02-23T03:55:12.902Z,0.00
2023-02-23T03:56:12.884Z,0.00
2023-02-23T03:57:12.757Z,0.00
2023-02-23T03:58:13.603Z,0.00
2023-02-23T03:59:13.679Z,0.00
2023-02-23T04:00:13.763Z,0.00
2023-02-23T04:01:13.677Z,0.00
2023-02-23T04:02:14.163Z,0.00
2023-02-23T04:03:13.254Z,0.00
2023-02-23T04:04:13.177Z,0.00
2023-02-23T04:05:13.075Z,0.00
2023-02-23T04:06:13.044Z,0.00
2023-02-23T04:07:13.051Z,0.00
2023-02-23T04:08:13.161Z,0.00
2023-02-23T04:09:13.133Z,0.00
2023-02-23T04:10:13.081Z,0.00
2023-02-23T04:11:13.102Z,0.00
2023-02-23T04:12:13.008Z,0.00
2023-02-23T04:13:12.926Z,0.00
2023-02-23T04:14:12.891Z,0.00
2023-02-23T04:15:12.844Z,0.00
2023-02-23T04:16:14.044Z,0.00
2023-02-23T04:17:13.153Z,0.00
2023-02-23T04:18:13.197Z,0.00
2023-02-23T04:19:13.428Z,0.00
2023-02-23T04:20:13.416Z,0.00
2023-02-23T04:21:13.765Z,0.00
2023-02-23T04:22:13.890Z,0.00
2023-02-23T04:23:13.193Z,0.00
2023-02-23T04:24:13.202Z,0.00
2023-02-23T04:25:13.143Z,0.00
2023-02-23T04:26:13.067Z,0.00
2023-02-23T04:27:13.004Z,0.00
2023-02-23T04:28:13.005Z,0.00
2023-02-23T04:29:13.359Z,0.00
2023-02-23T04:30:13.447Z,0.00
2023-02-23T04:31:13.780Z,0.00
2023-02-23T04:32:13.710Z,0.00
2023-02-23T04:33:14.122Z,0.00
2023-02-23T04:34:13.242Z,0.00
2023-02-23T04:35:13.353Z,0.00
2023-02-23T04:36:13.294Z,0.00
2023-02-23T04:37:13.647Z,0.00
2023-02-23T04:38:14.134Z,0.00
2023-02-23T04:39:17.619Z,0.00
2023-02-23T04:40:13.701Z,0.00
2023-02-23T04:41:13.607Z,0.00
2023-02-23T04:42:13.496Z,0.00
2023-02-23T04:43:13.498Z,0.00
2023-02-23T04:44:13.407Z,0.00
2023-02-23T04:45:13.475Z,0.00
2023-02-23T04:46:13.541Z,0.00
2023-02-23T04:47:13.674Z,0.00
2023-02-23T04:48:13.677Z,0.00
2023-02-23T04:49:13.676Z,0.00
2023-02-23T04:50:13.734Z,0.00
2023-02-23T04:51:13.967Z,0.00
2023-02-23T04:52:12.799Z,0.00
2023-02-23T04:53:13.943Z,0.00
2023-02-23T04:54:13.150Z,0.00
2023-02-23T04:55:12.981Z,0.00
2023-02-23T04:56:13.370Z,0.00
2023-02-23T04:57:13.543Z,0.00
2023-02-23T04:58:13.700Z,0.00
2023-02-23T04:59:13.835Z,0.00
2023-02-23T05:00:13.713Z,0.00
2023-02-23T05:01:37.306Z,0.00
2023-02-23T05:02:13.701Z,0.00
2023-02-23T05:03:13.828Z,0.00
2023-02-23T05:04:14.054Z,0.00
2023-02-23T05:05:13.054Z,0.00
2023-02-23T05:06:12.899Z,0.00
2023-02-23T05:07:12.941Z,0.00
2023-02-23T05:08:12.930Z,0.00
2023-02-23T05:09:12.840Z,0.00
2023-02-23T05:10:13.774Z,0.00
2023-02-23T05:11:13.696Z,0.00
2023-02-23T05:12:13.628Z,0.00
2023-02-23T05:13:13.524Z,0.00
2023-02-23T05:14:13.596Z,0.00
2023-02-23T05:15:13.698Z,0.00
2023-02-23T05:16:13.797Z,0.00
2023-02-23T05:17:13.879Z,0.00
2023-02-23T05:18:14.207Z,0.00
2023-02-23T05:19:13.369Z,0.00
2023-02-23T05:20:13.519Z,0.00
2023-02-23T05:21:13.510Z,0.00
2023-02-23T05:22:13.338Z,0.00
2023-02-23T05:23:13.341Z,0.00
2023-02-23T05:24:13.261Z,0.00
2023-02-23T05:25:13.764Z,0.00
2023-02-23T05:26:14.126Z,0.00
2023-02-23T05:27:13.040Z,0.00
2023-02-23T05:28:12.928Z,0.00
2023-02-23T05:29:13.015Z,0.00
2023-02-23T05:30:12.909Z,0.00
2023-02-23T05:31:12.950Z,0.00
2023-02-23T05:32:13.192Z,0.00
2023-02-23T05:33:13.293Z,0.00
2023-02-23T05:34:13.391Z,0.00
2023-02-23T05:35:13.456Z,0.00
2023-02-23T05:36:14.350Z,0.00
2023-02-23T05:37:13.687Z,0.00
2023-02-23T05:38:13.706Z,0.00
2023-02-23T05:39:15.110Z,0.00
2023-02-23T05:40:13.360Z,0.00
2023-02-23T05:41:13.236Z,0.00
2023-02-23T05:43:00.850Z,0.00
2023-02-23T05:43:13.420Z,0.00
2023-02-23T05:44:18.685Z,0.00
2023-02-23T05:45:13.943Z,0.00
2023-02-23T05:46:18.230Z,0.00
2023-02-23T05:47:13.441Z,0.00
2023-02-23T05:48:13.469Z,0.00
2023-02-23T05:49:13.587Z,0.00
2023-02-23T05:50:13.887Z,0.00
2023-02-23T05:51:13.185Z,0.00
2023-02-23T05:52:13.117Z,0.00
2023-02-23T05:53:13.744Z,0.00
2023-02-23T05:54:18.762Z,0.00
2023-02-23T05:55:13.745Z,0.00
2023-02-23T05:56:13.733Z,0.00
2023-02-23T05:57:13.940Z,0.00
2023-02-23T05:58:12.886Z,0.00
2023-02-23T05:59:13.281Z,0.00
2023-02-23T06:00:13.287Z,0.00
2023-02-23T06:01:13.350Z,0.00
2023-02-23T06:02:13.437Z,0.00
2023-02-23T06:03:13.752Z,0.00
2023-02-23T06:04:13.957Z,0.77
2023-02-23T06:05:12.939Z,0.77
2023-02-23T06:06:13.208Z,0.77
2023-02-23T06:07:13.308Z,1.53
2023-02-23T06:08:13.411Z,1.53
2023-02-23T06:09:13.602Z,2.29
2023-02-23T06:10:13.536Z,3.06
2023-02-23T06:11:13.739Z,3.82
2023-02-23T06:12:13.648Z,4.59
2023-02-23T06:13:13.653Z,6.12
2023-02-23T06:14:13.709Z,6.88
2023-02-23T06:15:13.694Z,8.41
2023-02-23T06:16:13.830Z,9.95
2023-02-23T06:17:13.021Z,11.47
2023-02-23T06:18:12.923Z,13.77
2023-02-23T06:19:14.091Z,16.83
2023-02-23T06:20:13.021Z,19.89
2023-02-23T06:21:12.977Z,22.95
2023-02-23T06:22:13.145Z,24.48
2023-02-23T06:23:13.154Z,30.60
2023-02-23T06:24:13.077Z,33.66
2023-02-23T06:25:13.178Z,39.78
2023-02-23T06:26:13.109Z,45.90
2023-02-23T06:27:12.968Z,48.96
2023-02-23T06:28:13.066Z,55.08
2023-02-23T06:29:14.029Z,55.08
2023-02-23T06:30:12.979Z,61.20
2023-02-23T06:31:12.934Z,73.44
2023-02-23T06:32:13.058Z,85.68
2023-02-23T06:33:13.233Z,91.80
2023-02-23T06:34:13.382Z,97.92
2023-02-23T06:35:13.258Z,97.92
2023-02-23T06:36:13.228Z,110.16
2023-02-23T06:37:13.058Z,134.64
2023-02-23T06:38:12.992Z,159.12
2023-02-23T06:39:13.127Z,183.60
2023-02-23T06:40:13.209Z,195.84
2023-02-23T06:41:13.639Z,220.32
2023-02-23T06:42:13.674Z,244.80
2023-02-23T06:43:14.815Z,269.28
2023-02-23T06:44:13.985Z,293.76
2023-02-23T06:45:13.275Z,342.72
2023-02-23T06:46:13.406Z,367.20
2023-02-23T06:47:13.442Z,391.68
2023-02-23T06:48:13.483Z,391.68
2023-02-23T06:49:16.185Z,440.64
2023-02-23T06:50:13.615Z,440.64
2023-02-23T06:51:13.702Z,489.60
2023-02-23T06:52:13.788Z,538.56
2023-02-23T06:53:14.071Z,587.52
2023-02-23T06:54:13.128Z,636.48
2023-02-23T06:55:13.062Z,636.48
2023-02-23T06:56:13.323Z,734.40
2023-02-23T06:57:13.794Z,734.40
2023-02-23T06:58:13.693Z,783.36
2023-02-23T06:59:13.936Z,783.36
2023-02-23T07:00:12.843Z,881.28
2023-02-23T07:01:14.081Z,881.28
2023-02-23T07:02:13.047Z,881.28
2023-02-23T07:03:13.267Z,881.28
2023-02-23T07:04:16.235Z,881.28
2023-02-23T07:05:14.001Z,881.28
2023-02-23T07:06:12.949Z,979.20
2023-02-23T07:07:13.371Z,979.20
2023-02-23T07:08:13.430Z,979.20
2023-02-23T07:09:13.380Z,881.28
2023-02-23T07:10:13.325Z,881.28
2023-02-23T07:11:13.457Z,979.20
2023-02-23T07:12:13.873Z,979.20
2023-02-23T07:13:13.702Z,979.20
2023-02-23T07:14:21.484Z,979.20
2023-02-23T07:15:13.247Z,979.20
2023-02-23T07:16:13.300Z,979.20
2023-02-23T07:17:13.366Z,979.20
2023-02-23T07:18:13.278Z,1175.04
2023-02-23T07:19:13.306Z,1077.12
2023-02-23T07:20:13.337Z,1077.12
2023-02-23T07:21:13.315Z,1077.12
2023-02-23T07:22:13.303Z,1077.12
2023-02-23T07:23:13.281Z,1175.04
2023-02-23T07:24:13.769Z,1272.96
2023-02-23T07:25:13.962Z,1272.96
2023-02-23T07:26:13.009Z,1370.88
2023-02-23T07:27:13.272Z,1566.72
2023-02-23T07:28:38.097Z,1566.72
2023-02-23T07:29:13.600Z,1468.80
2023-02-23T07:30:13.626Z,1272.96
2023-02-23T07:31:13.797Z,1175.04
2023-02-23T07:32:14.058Z,1077.12
2023-02-23T07:33:18.093Z,979.20
2023-02-23T07:34:13.173Z,979.20
2023-02-23T07:35:13.204Z,881.28
2023-02-23T07:36:13.345Z,881.28
2023-02-23T07:37:13.647Z,881.28
2023-02-23T07:38:13.667Z,979.20
2023-02-23T07:39:13.964Z,979.20
2023-02-23T07:40:13.089Z,979.20
2023-02-23T07:41:13.022Z,1077.12
2023-02-23T07:42:56.420Z,979.20
2023-02-23T07:43:14.339Z,979.20
2023-02-23T07:44:13.495Z,1077.12
2023-02-23T07:45:13.610Z,1077.12
2023-02-23T07:46:13.644Z,979.20
2023-02-23T07:47:13.682Z,1077.12
2023-02-23T07:48:13.885Z,1077.12
2023-02-23T07:49:13.119Z,1175.04
2023-02-23T07:50:13.342Z,1077.12
2023-02-23T07:51:13.658Z,1077.12
2023-02-23T07:52:13.530Z,1175.04
2023-02-23T07:53:13.938Z,1468.80
2023-02-23T07:54:12.980Z,1566.72
2023-02-23T07:55:13.813Z,1566.72
2023-02-23T07:56:14.119Z,1566.72
2023-02-23T07:57:13.442Z,1566.72
2023-02-23T07:58:13.343Z,1566.72
2023-02-23T07:59:54.641Z,1370.88
2023-02-23T08:00:13.316Z,1370.88
2023-02-23T08:01:13.416Z,1272.96
2023-02-23T08:02:13.526Z,1175.04
2023-02-23T08:03:13.820Z,1175.04
2023-02-23T08:04:14.073Z,1272.96
2023-02-23T08:05:14.507Z,1272.96
2023-02-23T08:06:14.154Z,1272.96
2023-02-23T08:07:13.436Z,1272.96
2023-02-23T08:08:13.604Z,1175.04
2023-02-23T08:09:13.651Z,1077.12
2023-02-23T08:10:13.656Z,1175.04
2023-02-23T08:11:13.919Z,1272.96
2023-02-23T08:12:50.698Z,1272.96
2023-02-23T08:13:14.139Z,1370.88
2023-02-23T08:14:13.270Z,1566.72
2023-02-23T08:15:13.393Z,1762.56
2023-02-23T08:16:13.465Z,2350.08
2023-02-23T08:17:13.844Z,2545.92
2023-02-23T08:18:13.941Z,2154.24
2023-02-23T08:19:13.149Z,2154.24
2023-02-23T08:20:13.430Z,2545.92
2023-02-23T08:21:13.533Z,2741.76
2023-02-23T08:22:13.544Z,2741.76
2023-02-23T08:23:23.701Z,2741.76
2023-02-23T08:24:13.803Z,2937.60
2023-02-23T08:25:18.883Z,3133.44
2023-02-23T08:26:15.531Z,3133.44
2023-02-23T08:27:13.945Z,2741.76
2023-02-23T08:28:13.032Z,2154.24
2023-02-23T08:29:13.161Z,1958.40
2023-02-23T08:30:25.631Z,2154.24
2023-02-23T08:31:14.421Z,2545.92
2023-02-23T08:32:13.636Z,3133.44
2023-02-23T08:33:14.194Z,3133.44
2023-02-23T08:34:13.401Z,2937.60
2023-02-23T08:35:13.508Z,3133.44
2023-02-23T08:36:13.518Z,2937.60
2023-02-23T08:37:13.564Z,2545.92
2023-02-23T08:38:13.954Z,2545.92
2023-02-23T08:39:13.281Z,2937.60
2023-02-23T08:40:13.353Z,3133.44
2023-02-23T08:41:13.395Z,3133.44
2023-02-23T08:42:13.682Z,3133.44
2023-02-23T08:43:13.732Z,2937.60
2023-02-23T08:44:13.832Z,2937.60
2023-02-23T08:45:27.343Z,2741.76
2023-02-23T08:46:13.445Z,2350.08
2023-02-23T08:47:13.677Z,2154.24
2023-02-23T08:48:13.824Z,2154.24
2023-02-23T08:49:13.857Z,2350.08
2023-02-23T08:50:14.070Z,2350.08
2023-02-23T08:51:13.184Z,2350.08
2023-02-23T08:52:18.283Z,2350.08
2023-02-23T08:53:13.269Z,2154.24
2023-02-23T08:54:13.287Z,2154.24
2023-02-23T08:55:13.261Z,2154.24
2023-02-23T08:56:13.579Z,1762.56
2023-02-23T08:57:43.840Z,1566.72
2023-02-23T08:58:13.864Z,1566.72
2023-02-23T08:59:14.183Z,1762.56
2023-02-23T09:00:13.588Z,1566.72
2023-02-23T09:01:13.745Z,1468.80
2023-02-23T09:02:13.891Z,1566.72
2023-02-23T09:03:12.885Z,1762.56
2023-02-23T09:04:14.105Z,1762.56
2023-02-23T09:05:13.339Z,1762.56
2023-02-23T09:06:13.887Z,1958.40
2023-02-23T09:07:13.262Z,1958.40
2023-02-23T09:08:13.673Z,1566.72
2023-02-23T09:09:14.572Z,1566.72
2023-02-23T09:10:13.706Z,1370.88
2023-02-23T09:11:13.932Z,1272.96
2023-02-23T09:12:13.095Z,1272.96
2023-02-23T09:13:13.163Z,1370.88
2023-02-23T09:14:13.217Z,1762.56
2023-02-23T09:15:13.211Z,2350.08
2023-02-23T09:16:27.258Z,2937.60
2023-02-23T09:17:13.676Z,2741.76
2023-02-23T09:18:13.931Z,2741.76
2023-02-23T09:19:12.893Z,2937.60
2023-02-23T09:20:13.420Z,2937.60
2023-02-23T09:21:13.536Z,3525.12
2023-02-23T09:22:13.560Z,3916.80
2023-02-23T09:23:13.563Z,3916.80
2023-02-23T09:24:13.728Z,3916.80
2023-02-23T09:25:14.252Z,3525.12
2023-02-23T09:26:13.392Z,3916.80
2023-02-23T09:27:13.693Z,4700.16
2023-02-23T09:28:13.947Z,5875.20
2023-02-23T09:29:13.201Z,6266.88
2023-02-23T09:30:13.315Z,7050.24
2023-02-23T09:31:13.695Z,7833.60
2023-02-23T09:32:13.217Z,7833.60
2023-02-23T09:33:23.448Z,8616.96
2023-02-23T09:34:13.496Z,8616.96
2023-02-23T09:35:13.760Z,9400.32
2023-02-23T09:36:13.741Z,10183.68
2023-02-23T09:37:13.585Z,10183.68
2023-02-23T09:38:13.581Z,10183.68
2023-02-23T09:39:13.756Z,10967.04
2023-02-23T09:40:14.211Z,10967.04
2023-02-23T09:41:18.362Z,10967.04
2023-02-23T09:42:13.601Z,10183.68
2023-02-23T09:43:13.907Z,10183.68
2023-02-23T09:44:12.791Z,9400.32
2023-02-23T09:45:13.776Z,8616.96
2023-02-23T09:46:14.239Z,8616.96
2023-02-23T09:47:13.249Z,8616.96
2023-02-23T09:48:13.228Z,8616.96
2023-02-23T09:49:13.222Z,8616.96
2023-02-23T09:50:23.219Z,8616.96
2023-02-23T09:51:13.677Z,8616.96
2023-02-23T09:52:14.104Z,8616.96
2023-02-23T09:53:13.237Z,7833.60
2023-02-23T09:54:52.704Z,7050.24
2023-02-23T09:55:12.990Z,7050.24
2023-02-23T09:56:13.239Z,7050.24
2023-02-23T09:57:13.102Z,6266.88
2023-02-23T09:58:50.212Z,6266.88
2023-02-23T09:59:13.206Z,6266.88
2023-02-23T10:00:27.998Z,5875.20
2023-02-23T10:01:14.688Z,5483.52
2023-02-23T10:02:13.853Z,6266.88
2023-02-23T10:03:13.965Z,6266.88
2023-02-23T10:04:56.974Z,5875.20
2023-02-23T10:05:13.468Z,6266.88
2023-02-23T10:06:31.527Z,6266.88
2023-02-23T10:07:13.861Z,5091.84
2023-02-23T10:08:14.422Z,4308.48
2023-02-23T10:09:13.340Z,4308.48
2023-02-23T10:11:13.372Z,3916.80
2023-02-23T10:12:13.797Z,3916.80
2023-02-23T10:13:14.043Z,3916.80
2023-02-23T10:14:13.132Z,4308.48
2023-02-23T10:15:13.071Z,3916.80
2023-02-23T10:16:13.187Z,3525.12
2023-02-23T10:17:13.200Z,4700.16
2023-02-23T10:18:13.240Z,5483.52
2023-02-23T10:19:13.350Z,5483.52
2023-02-23T10:20:13.392Z,5483.52
2023-02-23T10:21:13.377Z,5483.52
2023-02-23T10:22:13.623Z,5875.20
2023-02-23T10:24:38.035Z,6266.88
2023-02-23T10:25:14.502Z,6266.88
2023-02-23T10:26:14.898Z,5483.52
2023-02-23T10:27:12.708Z,5091.84
2023-02-23T10:28:13.809Z,5091.84
2023-02-23T10:29:14.022Z,5091.84
2023-02-23T10:30:13.245Z,6266.88
2023-02-23T10:31:23.626Z,7050.24
2023-02-23T10:32:18.426Z,7050.24
2023-02-23T10:33:13.547Z,7050.24
2023-02-23T10:34:13.728Z,6266.88
2023-02-23T10:35:13.852Z,6266.88
2023-02-23T10:36:27.909Z,7050.24
2023-02-23T10:37:12.993Z,6266.88
2023-02-23T10:38:13.001Z,5875.20
2023-02-23T10:39:13.483Z,6266.88
2023-02-23T10:40:13.580Z,6266.88
2023-02-23T10:41:14.987Z,5483.52
2023-02-23T10:43:13.450Z,5483.52
2023-02-23T10:44:17.043Z,5091.84
2023-02-23T10:45:13.408Z,5091.84
2023-02-23T10:46:24.350Z,5091.84
2023-02-23T10:47:20.240Z,5483.52
2023-02-23T10:48:13.241Z,5483.52
2023-02-23T10:49:22.881Z,5875.20
2023-02-23T10:50:13.025Z,5483.52
2023-02-23T10:51:38.186Z,4700.16
2023-02-23T10:52:13.095Z,4700.16
2023-02-23T10:53:13.352Z,5091.84
2023-02-23T10:54:13.868Z,5483.52
2023-02-23T10:55:12.855Z,4308.48
2023-02-23T10:56:14.026Z,3916.80
2023-02-23T10:57:14.252Z,5091.84
2023-02-23T10:58:37.890Z,5091.84
2023-02-23T10:59:23.130Z,4308.48
2023-02-23T11:00:13.145Z,3525.12
2023-02-23T11:01:13.204Z,2937.60
2023-02-23T11:02:33.485Z,2545.92
2023-02-23T11:03:13.497Z,2350.08
2023-02-23T11:04:50.608Z,2741.76
2023-02-23T11:05:14.227Z,2741.76
2023-02-23T11:06:31.069Z,2937.60
2023-02-23T11:07:14.083Z,2545.92
2023-02-23T11:08:14.033Z,2350.08
2023-02-23T11:09:13.690Z,2545.92
2023-02-23T11:10:18.883Z,2937.60
2023-02-23T11:11:45.923Z,3916.80
2023-02-23T11:12:12.978Z,4308.48
2023-02-23T11:13:13.006Z,3525.12
2023-02-23T11:14:13.242Z,2741.76
2023-02-23T11:15:13.338Z,2741.76
2023-02-23T11:16:23.975Z,2741.76
2023-02-23T11:17:13.031Z,2741.76
2023-02-23T11:19:13.650Z,2741.76
2023-02-23T11:20:13.570Z,2350.08
2023-02-23T11:21:17.968Z,2154.24
2023-02-23T11:22:26.696Z,2154.24
2023-02-23T11:23:14.978Z,2350.08
2023-02-23T11:24:13.831Z,2350.08
2023-02-23T11:25:15.030Z,2350.08
2023-02-23T11:26:13.135Z,2741.76
2023-02-23T11:27:13.503Z,2937.60
2023-02-23T11:28:16.414Z,2741.76
2023-02-23T11:29:13.728Z,2741.76
2023-02-23T11:30:13.872Z,2545.92
2023-02-23T11:31:41.026Z,2545.92
2023-02-23T11:32:13.359Z,2545.92
2023-02-23T11:33:18.614Z,2350.08
2023-02-23T11:34:13.697Z,2350.08
2023-02-23T11:35:14.066Z,2350.08
2023-02-23T11:36:13.182Z,2545.92
2023-02-23T11:37:13.122Z,2350.08
2023-02-23T11:39:07.164Z,2154.24
2023-02-23T11:39:28.865Z,2154.24
2023-02-23T11:40:14.034Z,1958.40
2023-02-23T11:41:13.262Z,1958.40
2023-02-23T11:42:13.399Z,1958.40
2023-02-23T11:43:13.531Z,2154.24
2023-02-23T11:44:13.614Z,2545.92
2023-02-23T11:45:13.663Z,2350.08
2023-02-23T11:46:13.603Z,2545.92
2023-02-23T11:47:13.974Z,2741.76
2023-02-23T11:48:14.879Z,2545.92
2023-02-23T11:49:30.061Z,2545.92
2023-02-23T11:50:13.003Z,2937.60
2023-02-23T11:51:15.320Z,2937.60
2023-02-23T11:52:13.295Z,3133.44
2023-02-23T11:53:13.248Z,3133.44
2023-02-23T11:54:43.524Z,3133.44
2023-02-23T11:55:13.804Z,3525.12
2023-02-23T11:56:13.933Z,3133.44
2023-02-23T11:57:12.910Z,2937.60
2023-02-23T11:58:13.249Z,2937.60
2023-02-23T11:59:13.338Z,2741.76
2023-02-23T12:00:13.482Z,2741.76
2023-02-23T12:01:13.772Z,2545.92
2023-02-23T12:02:14.165Z,2545.92
2023-02-23T12:03:19.856Z,2545.92
2023-02-23T12:04:24.851Z,2350.08
2023-02-23T12:05:13.843Z,2350.08
2023-02-23T12:06:13.880Z,2741.76
2023-02-23T12:07:51.030Z,2741.76
2023-02-23T12:08:12.971Z,2741.76
2023-02-23T12:09:13.251Z,2937.60
2023-02-23T12:10:13.642Z,2937.60
2023-02-23T12:11:13.897Z,3133.44
2023-02-23T12:12:12.983Z,3133.44
2023-02-23T12:13:13.060Z,3133.44
2023-02-23T12:14:46.489Z,2937.60
2023-02-23T12:15:18.459Z,3133.44
2023-02-23T12:16:13.440Z,3133.44
2023-02-23T12:17:18.614Z,3133.44
2023-02-23T12:18:13.613Z,3133.44
2023-02-23T12:19:13.876Z,3525.12
2023-02-23T12:20:14.049Z,4700.16
2023-02-23T12:21:13.373Z,5483.52
2023-02-23T12:22:13.725Z,5875.20
2023-02-23T12:23:14.503Z,5091.84
2023-02-23T12:24:13.687Z,5091.84
2023-02-23T12:25:13.614Z,5483.52
2023-02-23T12:26:13.982Z,4700.16
2023-02-23T12:27:13.030Z,5091.84
2023-02-23T12:28:18.887Z,5483.52
2023-02-23T12:29:13.279Z,5483.52
2023-02-23T12:30:13.523Z,4700.16
2023-02-23T12:31:13.586Z,4308.48
2023-02-23T12:32:13.655Z,4308.48
2023-02-23T12:33:13.701Z,4700.16
2023-02-23T12:34:13.721Z,3916.80
2023-02-23T12:35:14.028Z,3525.12
2023-02-23T12:36:13.127Z,3525.12
2023-02-23T12:37:13.201Z,3525.12
2023-02-23T12:38:13.538Z,3525.12
2023-02-23T12:39:13.725Z,3133.44
2023-02-23T12:40:13.731Z,3133.44
2023-02-23T12:41:13.703Z,2937.60
2023-02-23T12:42:13.796Z,2741.76
2023-02-23T12:43:13.213Z,2545.92
2023-02-23T12:44:13.421Z,2154.24
2023-02-23T12:45:13.554Z,1958.40
2023-02-23T12:46:13.779Z,1958.40